Time;durP1;ratioP1;P1;durP2;ratioP2;P2;SDS_P1;SDS_P2;PMS_P1;PMS_P2;Temp;Humidity;BMP_temperature;BMP_pressure;BME280_temperature;BME280_humidity;BME280_pressure;Samples;Min_cycle;Max_cycle;Signal;HPM_P1;HPM_P2
2022/07/13 00:00:21;;;;;;;34.60;3.08;;;;;;;46.92;6.89;100393.63;5049238;28;20035;-64
2022/07/13 00:02:47;;;;;;;23.38;2.47;;;;;;;46.03;7.44;100382.09;5045173;28;20037;-62
2022/07/13 00:05:14;;;;;;;29.67;2.83;;;;;;;45.78;7.91;100378.88;5047325;28;20056;-63
2022/07/13 00:07:40;;;;;;;30.02;2.95;;;;;;;47.25;7.61;100375.50;5044781;28;20041;-63
2022/07/13 00:10:07;;;;;;;14.77;2.40;;;;;;;48.46;6.51;100370.81;5045970;28;20048;-63
2022/07/13 00:12:34;;;;;;;26.92;3.58;;;;;;;47.06;8.13;100373.69;5042494;28;20044;-63
2022/07/13 00:15:01;;;;;;;23.40;3.30;;;;;;;46.09;8.68;100365.63;5042343;28;20409;-63
2022/07/13 00:17:27;;;;;;;33.17;4.07;;;;;;;45.40;9.52;100368.81;5047202;28;20032;-63
2022/07/13 00:19:54;;;;;;;30.88;3.90;;;;;;;46.82;9.07;100368.50;5045585;28;20726;-63
2022/07/13 00:22:22;;;;;;;28.40;3.55;;;;;;;47.16;9.20;100367.13;5049956;28;20032;-63
2022/07/13 00:24:49;;;;;;;42.55;4.63;;;;;;;47.46;9.57;100373.03;5042478;28;20109;-63
2022/07/13 00:27:15;;;;;;;35.42;4.40;;;;;;;47.61;9.53;100366.19;5048276;28;20033;-63
2022/07/13 00:29:42;;;;;;;33.75;4.30;;;;;;;46.29;10.16;100371.13;5046445;28;20454;-63
2022/07/13 00:32:09;;;;;;;35.63;4.15;;;;;;;45.62;11.18;100358.72;5046221;28;20057;-65
2022/07/13 00:34:36;;;;;;;37.95;4.40;;;;;;;45.42;11.89;100374.03;5038996;28;20082;-62
2022/07/13 00:37:03;;;;;;;32.58;4.53;;;;;;;44.75;12.25;100359.28;5046503;28;20033;-62
2022/07/13 00:39:30;;;;;;;30.02;4.10;;;;;;;45.00;12.29;100361.28;5038675;28;20025;-64
2022/07/13 00:41:57;;;;;;;37.33;4.20;;;;;;;43.19;14.10;100356.34;5045743;28;20029;-62
2022/07/13 00:44:24;;;;;;;24.75;4.45;;;;;;;43.98;13.16;100358.84;5038003;28;20086;-64
2022/07/13 00:46:54;;;;;;;36.10;5.50;;;;;;;43.02;14.58;100350.41;5045981;28;20049;-64
2022/07/13 00:49:22;;;;;;;30.85;4.57;;;;;;;42.68;14.74;100363.38;5045953;28;20025;-62
2022/07/13 00:51:49;;;;;;;33.38;4.38;;;;;;;42.62;14.88;100359.66;5045832;28;20395;-63
2022/07/13 00:54:19;;;;;;;31.15;4.43;;;;;;;42.11;15.46;100355.16;5043834;28;20025;-62
2022/07/13 00:56:49;;;;;;;29.45;4.63;;;;;;;42.14;15.57;100345.59;5047459;28;20032;-64
2022/07/13 00:59:15;;;;;;;30.50;4.68;;;;;;;42.52;15.49;100353.25;5047314;28;20048;-62
2022/07/13 01:01:42;;;;;;;28.95;3.90;;;;;;;42.99;15.20;100342.81;5046438;28;20040;-61
2022/07/13 01:04:09;;;;;;;29.73;4.32;;;;;;;43.45;15.17;100335.59;5058186;28;20491;-63
2022/07/13 01:06:36;;;;;;;28.92;4.50;;;;;;;42.80;15.47;100345.13;5039879;28;20029;-62
2022/07/13 01:09:03;;;;;;;32.25;4.60;;;;;;;42.95;15.54;100336.53;5042541;28;20032;-64
2022/07/13 01:11:32;;;;;;;30.50;4.07;;;;;;;43.35;15.48;100343.56;5046050;28;20517;-62
2022/07/13 01:14:00;;;;;;;26.15;3.55;;;;;;;43.69;14.78;100344.78;5048386;28;20025;-64
2022/07/13 01:16:27;;;;;;;25.75;3.63;;;;;;;42.88;15.83;100336.13;5053203;28;20181;-64
2022/07/13 01:18:54;;;;;;;38.25;4.50;;;;;;;42.66;15.57;100357.38;5051920;28;20056;-61
2022/07/13 01:21:22;;;;;;;35.45;4.60;;;;;;;42.53;15.54;100354.03;5055279;28;20048;-61
2022/07/13 01:23:51;;;;;;;29.50;3.63;;;;;;;43.34;14.92;100347.72;5050731;28;20033;-63
2022/07/13 01:26:18;;;;;;;34.20;4.60;;;;;;;42.49;15.98;100350.59;5048171;28;20592;-62
2022/07/13 01:28:45;;;;;;;32.45;3.60;;;;;;;42.09;16.30;100357.72;5049863;28;20033;-63
2022/07/13 01:31:12;;;;;;;30.35;4.20;;;;;;;42.38;15.96;100350.41;5054280;28;20506;-63
2022/07/13 01:33:38;;;;;;;38.45;4.57;;;;;;;42.24;16.25;100352.00;5051687;28;20081;-61
2022/07/13 01:36:05;;;;;;;31.58;4.38;;;;;;;42.04;17.19;100355.53;5053239;28;20033;-63
2022/07/13 01:38:32;;;;;;;42.13;4.43;;;;;;;42.09;17.52;100356.94;5049882;28;20522;-64
2022/07/13 01:41:03;;;;;;;24.65;3.60;;;;;;;41.92;18.15;100353.72;5047457;28;20110;-62
2022/07/13 01:43:30;;;;;;;31.88;4.28;;;;;;;41.77;18.75;100359.41;5050137;28;20163;-64
2022/07/13 01:45:57;;;;;;;29.88;4.57;;;;;;;42.00;18.69;100366.31;5052613;28;20029;-64
2022/07/13 01:48:23;;;;;;;37.35;4.55;;;;;;;41.59;19.61;100366.03;5052596;28;20056;-63
2022/07/13 01:50:51;;;;;;;31.73;4.93;;;;;;;41.39;19.64;100373.66;5062069;28;20064;-62
2022/07/13 01:53:19;;;;;;;26.35;4.07;;;;;;;41.45;19.41;100371.72;5047561;28;20029;-65
2022/07/13 01:55:46;;;;;;;36.45;4.53;;;;;;;41.13;20.19;100373.34;5042421;28;20037;-63
2022/07/13 01:58:13;;;;;;;34.55;4.25;;;;;;;40.73;21.02;100369.56;5046387;28;20040;-62
2022/07/13 02:00:40;;;;;;;27.40;4.55;;;;;;;40.31;21.50;100372.38;5041020;28;20125;-62
2022/07/13 02:03:06;;;;;;;29.40;4.72;;;;;;;40.08;21.87;100381.63;5035704;28;20056;-63
2022/07/13 02:05:33;;;;;;;28.10;4.25;;;;;;;39.76;22.11;100383.03;5052465;28;20029;-61
2022/07/13 02:08:00;;;;;;;29.98;4.18;;;;;;;39.40;23.03;100384.56;5050910;28;20036;-62
2022/07/13 02:10:37;;;;;;;32.35;4.18;;;;;;;39.45;23.20;100388.84;5067411;28;20591;-63
2022/07/13 02:13:08;;;;;;;26.13;3.67;;;;;;;39.17;23.57;100388.78;5067615;28;20041;-63
2022/07/13 02:15:35;;;;;;;35.72;4.68;;;;;;;38.97;23.50;100396.94;5053563;28;20049;-64
2022/07/13 02:18:04;;;;;;;24.02;3.85;;;;;;;38.85;23.71;100401.47;5052504;28;20609;-63
2022/07/13 02:20:33;;;;;;;28.00;4.63;;;;;;;38.55;24.69;100405.06;5052587;28;20120;-63
2022/07/13 02:23:00;;;;;;;26.85;4.15;;;;;;;38.28;25.55;100400.03;5052364;28;20112;-63
2022/07/13 02:25:28;;;;;;;28.10;3.83;;;;;;;37.99;25.92;100403.91;5052770;28;20092;-63
2022/07/13 02:27:55;;;;;;;18.63;3.67;;;;;;;37.89;25.83;100399.41;5053582;28;20087;-63
2022/07/13 02:30:24;;;;;;;28.70;3.72;;;;;;;37.76;26.31;100410.81;5051588;28;20071;-63
2022/07/13 02:32:53;;;;;;;21.80;3.70;;;;;;;37.54;26.49;100407.13;5048896;28;20033;-63
2022/07/13 02:35:20;;;;;;;19.92;3.38;;;;;;;37.37;27.38;100409.31;5046202;28;20017;-64
2022/07/13 02:37:46;;;;;;;25.83;3.53;;;;;;;37.11;28.00;100407.72;5052201;28;20171;-63
2022/07/13 02:40:13;;;;;;;21.27;3.70;;;;;;;37.01;27.05;100421.00;5033677;28;20399;-63
2022/07/13 02:42:40;;;;;;;27.33;3.58;;;;;;;37.06;27.81;100433.81;5050105;28;20059;-62
2022/07/13 02:45:08;;;;;;;18.60;3.45;;;;;;;36.85;28.37;100419.09;5053179;28;20028;-62
2022/07/13 02:47:35;;;;;;;22.70;3.70;;;;;;;36.71;28.20;100430.81;5053229;28;20075;-63
2022/07/13 02:50:02;;;;;;;28.20;3.63;;;;;;;36.60;28.41;100431.13;5052068;28;20471;-63
2022/07/13 02:52:31;;;;;;;30.75;3.50;;;;;;;36.48;28.33;100440.44;5051947;28;20352;-63
2022/07/13 02:54:58;;;;;;;22.80;4.10;;;;;;;36.36;29.17;100438.34;5051882;28;20185;-63
2022/07/13 02:57:26;;;;;;;18.88;4.22;;;;;;;36.24;29.86;100442.69;5048356;28;20029;-63
2022/07/13 02:59:57;;;;;;;21.48;3.70;;;;;;;36.15;29.77;100451.06;5051770;28;20032;-62
2022/07/13 03:02:23;;;;;;;20.20;4.50;;;;;;;36.09;30.21;100450.03;5050798;28;20028;-63
2022/07/13 03:04:50;;;;;;;24.27;4.68;;;;;;;35.98;30.25;100458.00;5050615;28;20021;-63
2022/07/13 03:07:18;;;;;;;22.30;4.95;;;;;;;35.89;30.35;100467.09;5051545;28;20029;-62
2022/07/13 03:09:44;;;;;;;21.70;4.78;;;;;;;35.77;31.08;100469.84;5052731;28;20744;-61
2022/07/13 03:12:12;;;;;;;22.33;4.90;;;;;;;35.65;31.47;100462.88;5051939;28;20064;-61
2022/07/13 03:14:39;;;;;;;29.30;5.32;;;;;;;35.57;30.89;100464.31;5049591;28;20032;-63
2022/07/13 03:17:06;;;;;;;22.85;4.75;;;;;;;35.51;32.02;100472.50;5052820;28;20108;-62
2022/07/13 03:19:33;;;;;;;17.52;3.97;;;;;;;35.30;32.50;100453.22;5051355;28;20386;-61
2022/07/13 03:22:03;;;;;;;20.23;4.20;;;;;;;35.34;32.30;100474.50;5050475;28;20068;-61
2022/07/13 03:24:32;;;;;;;23.23;4.15;;;;;;;35.29;32.37;100472.22;5051495;28;20033;-61
2022/07/13 03:27:00;;;;;;;21.38;4.25;;;;;;;35.25;31.86;100485.66;5050733;28;20017;-63
2022/07/13 03:29:27;;;;;;;22.48;4.00;;;;;;;35.16;32.02;100482.63;5050806;28;20032;-63
2022/07/13 03:31:54;;;;;;;21.42;4.03;;;;;;;35.02;32.98;100488.63;5050158;28;20033;-63
2022/07/13 03:34:21;;;;;;;24.25;4.70;;;;;;;35.01;33.38;100501.13;5019332;28;20052;-63
2022/07/13 03:36:49;;;;;;;29.10;4.22;;;;;;;34.91;33.07;100505.78;5050764;28;20106;-63
2022/07/13 03:39:16;;;;;;;21.90;4.05;;;;;;;34.77;33.41;100503.25;5049976;28;20071;-64
2022/07/13 03:41:43;;;;;;;21.25;4.07;;;;;;;34.81;33.56;100506.78;5016219;28;20044;-62
2022/07/13 03:44:12;;;;;;;26.08;4.30;;;;;;;34.80;33.40;100513.66;5050491;28;20483;-63
2022/07/13 03:46:40;;;;;;;20.42;3.67;;;;;;;34.69;33.44;100515.94;5050790;28;20021;-64
2022/07/13 03:49:07;;;;;;;25.02;3.92;;;;;;;34.65;33.36;100520.84;5065168;28;20025;-63
2022/07/13 03:51:36;;;;;;;20.70;3.90;;;;;;;34.53;34.30;100523.09;5052149;28;20031;-63
2022/07/13 03:54:03;;;;;;;21.10;3.95;;;;;;;34.41;33.82;100526.56;5052154;28;20086;-63
2022/07/13 03:56:33;;;;;;;27.42;3.85;;;;;;;34.37;34.44;100528.66;5050479;28;20025;-63
2022/07/13 03:59:00;;;;;;;24.92;3.55;;;;;;;34.30;34.61;100528.78;5049446;28;20033;-63
2022/07/13 04:01:27;;;;;;;21.48;3.60;;;;;;;34.25;34.50;100534.91;5048656;28;20036;-63
2022/07/13 04:03:53;;;;;;;23.65;4.13;;;;;;;34.23;34.54;100540.97;5046666;28;20130;-62
2022/07/13 04:06:20;;;;;;;25.52;4.15;;;;;;;34.14;34.66;100540.75;5044775;28;20041;-63
2022/07/13 04:08:47;;;;;;;23.00;3.70;;;;;;;34.22;34.54;100556.31;5040817;28;20045;-63
2022/07/13 04:11:14;;;;;;;24.55;3.80;;;;;;;34.11;34.46;100554.91;5045381;28;20132;-62
2022/07/13 04:13:43;;;;;;;21.48;3.53;;;;;;;33.92;34.86;100560.06;5034988;28;20131;-61
2022/07/13 04:16:10;;;;;;;24.15;3.67;;;;;;;33.86;34.81;100558.97;5050948;28;20443;-63
2022/07/13 04:18:39;;;;;;;14.55;3.63;;;;;;;33.91;34.94;100560.47;5046981;28;20142;-62
2022/07/13 04:21:07;;;;;;;23.90;4.40;;;;;;;33.76;37.30;100561.94;5036002;28;20415;-60
2022/07/13 04:23:35;;;;;;;30.10;4.72;;;;;;;33.64;38.48;100577.41;5048913;28;20071;-60
2022/07/13 04:26:03;;;;;;;18.75;3.47;;;;;;;33.49;40.04;100576.84;5047212;28;20121;-61
2022/07/13 04:28:30;;;;;;;23.75;4.13;;;;;;;33.37;38.49;100571.75;5048933;28;20112;-61
2022/07/13 04:30:57;;;;;;;16.90;3.78;;;;;;;33.45;38.91;100593.00;5046074;28;20065;-61
2022/07/13 04:33:28;;;;;;;19.50;4.00;;;;;;;33.42;38.48;100598.69;5048379;28;20398;-62
2022/07/13 04:35:56;;;;;;;19.80;4.20;;;;;;;33.32;39.71;100606.84;5048987;28;20626;-61
2022/07/13 04:38:24;;;;;;;15.73;4.20;;;;;;;33.20;39.56;100609.41;5043091;28;20290;-61
2022/07/13 04:40:50;;;;;;;19.55;3.88;;;;;;;33.26;39.90;100607.72;5045357;28;20116;-62
2022/07/13 04:43:17;;;;;;;18.08;3.70;;;;;;;33.24;39.83;100610.97;5048481;28;20029;-62
2022/07/13 04:45:44;;;;;;;30.60;4.10;;;;;;;33.25;40.00;100614.59;5048930;28;20056;-62
2022/07/13 04:48:11;;;;;;;22.40;3.80;;;;;;;33.21;40.68;100611.78;5049368;28;20430;-61
2022/07/13 04:50:38;;;;;;;24.70;4.00;;;;;;;33.14;40.12;100611.91;5049262;28;20033;-61
2022/07/13 04:53:06;;;;;;;20.40;3.65;;;;;;;33.05;40.13;100620.06;5048141;28;20041;-62
2022/07/13 04:55:36;;;;;;;18.85;3.53;;;;;;;32.93;40.67;100617.78;5048916;28;20041;-62
2022/07/13 04:58:03;;;;;;;15.95;3.65;;;;;;;33.05;40.42;100628.53;5042983;28;20085;-63
2022/07/13 05:00:30;;;;;;;19.52;3.72;;;;;;;32.91;40.23;100632.28;5049463;28;20105;-62
2022/07/13 05:02:57;;;;;;;19.73;3.40;;;;;;;32.90;40.77;100635.53;5045206;28;20128;-63
2022/07/13 05:05:25;;;;;;;18.58;3.15;;;;;;;32.80;40.40;100634.41;5042997;28;20033;-62
2022/07/13 05:07:52;;;;;;;19.50;3.60;;;;;;;32.83;40.36;100621.53;5065192;28;20060;-61
2022/07/13 05:10:18;;;;;;;13.93;3.42;;;;;;;32.92;39.81;100644.34;5047807;28;20074;-61
2022/07/13 05:12:51;;;;;;;15.95;3.20;;;;;;;32.90;39.97;100644.78;5049633;28;20472;-62
2022/07/13 05:15:18;;;;;;;10.27;3.13;;;;;;;32.88;39.20;100641.59;5040619;28;20044;-62
2022/07/13 05:17:45;;;;;;;17.85;3.25;;;;;;;32.85;39.65;100638.78;5040653;28;20059;-64
2022/07/13 05:20:12;;;;;;;9.65;2.78;;;;;;;32.92;39.06;100650.00;5047313;28;20036;-62
2022/07/13 05:22:45;;;;;;;15.80;3.10;;;;;;;32.88;39.10;100649.25;5049472;28;20048;-62
2022/07/13 05:25:12;;;;;;;14.75;3.20;;;;;;;32.80;39.07;100653.31;5049954;28;20040;-63
2022/07/13 05:27:38;;;;;;;13.40;3.20;;;;;;;32.80;39.43;100656.13;5045304;28;20025;-62
2022/07/13 05:30:05;;;;;;;11.32;3.08;;;;;;;32.82;38.67;100657.31;5030855;28;20059;-63
2022/07/13 05:32:32;;;;;;;10.93;3.03;;;;;;;32.84;39.29;100668.97;5042638;28;20510;-63
2022/07/13 05:34:59;;;;;;;15.30;3.38;;;;;;;32.69;39.51;100671.13;5049968;28;20033;-63
2022/07/13 05:37:26;;;;;;;10.18;2.60;;;;;;;32.67;39.70;100661.47;5046868;28;20132;-62
2022/07/13 05:39:52;;;;;;;13.35;3.13;;;;;;;32.80;39.70;100664.56;5044240;28;20029;-63
2022/07/13 05:42:19;;;;;;;13.20;3.10;;;;;;;32.64;39.55;100677.19;5044587;28;20470;-61
2022/07/13 05:44:46;;;;;;;12.75;2.92;;;;;;;32.49;38.58;100670.06;5047367;28;20112;-62
2022/07/13 05:47:13;;;;;;;14.05;3.67;;;;;;;32.40;40.79;100656.50;5048726;28;20033;-63
2022/07/13 05:49:39;;;;;;;12.70;2.60;;;;;;;32.35;40.97;100673.84;5047632;28;20033;-62
2022/07/13 05:52:08;;;;;;;20.38;3.70;;;;;;;32.33;41.83;100681.09;5048129;28;20017;-63
2022/07/13 05:54:36;;;;;;;16.02;3.45;;;;;;;32.31;42.13;100687.13;5028036;28;20368;-63
2022/07/13 05:57:03;;;;;;;14.73;3.38;;;;;;;32.20;42.27;100688.41;5045938;28;20062;-64
2022/07/13 05:59:30;;;;;;;15.77;3.17;;;;;;;32.05;42.88;100691.31;5053861;28;20380;-63
2022/07/13 06:01:56;;;;;;;13.55;3.28;;;;;;;31.99;43.28;100687.34;5053326;28;20392;-62
2022/07/13 06:04:23;;;;;;;15.38;3.40;;;;;;;32.03;43.54;100690.13;5051322;28;20037;-63
2022/07/13 06:06:49;;;;;;;18.77;3.53;;;;;;;31.99;44.08;100687.34;5053447;28;20486;-62
2022/07/13 06:09:16;;;;;;;18.58;3.83;;;;;;;31.88;44.32;100680.97;5051692;28;20037;-62
2022/07/13 06:11:43;;;;;;;20.92;3.92;;;;;;;31.80;44.63;100682.25;5040131;28;20166;-64
2022/07/13 06:14:09;;;;;;;17.08;3.45;;;;;;;31.74;44.67;100681.06;5049142;28;20117;-64
2022/07/13 06:16:36;;;;;;;17.02;3.50;;;;;;;31.73;45.55;100690.72;5049269;28;20476;-62
2022/07/13 06:19:03;;;;;;;14.50;3.40;;;;;;;31.61;44.16;100688.34;5051512;28;20036;-61
2022/07/13 06:21:29;;;;;;;19.17;3.55;;;;;;;31.68;45.53;100685.50;5051781;28;20048;-62
2022/07/13 06:23:56;;;;;;;14.75;3.63;;;;;;;31.65;46.06;100675.09;5053855;28;20059;-61
2022/07/13 06:26:23;;;;;;;15.38;3.45;;;;;;;31.75;45.51;100675.03;5044540;28;20121;-61
2022/07/13 06:28:51;;;;;;;15.68;3.15;;;;;;;31.60;45.78;100689.53;5048351;28;20025;-62
2022/07/13 06:31:18;;;;;;;18.20;3.95;;;;;;;31.54;44.65;100683.56;5045252;28;20030;-64
2022/07/13 06:33:44;;;;;;;23.02;3.55;;;;;;;31.44;46.98;100688.03;5049430;28;20037;-63
2022/07/13 06:36:11;;;;;;;17.73;3.08;;;;;;;31.31;46.91;100688.88;5054267;28;20422;-63
2022/07/13 06:38:38;;;;;;;19.30;3.80;;;;;;;31.20;47.94;100691.72;5048845;28;20124;-64
2022/07/13 06:41:05;;;;;;;15.25;4.35;;;;;;;31.05;48.32;100690.13;5049670;28;20399;-63
2022/07/13 06:43:31;;;;;;;23.52;3.83;;;;;;;30.93;46.73;100688.56;5051171;28;20387;-64
2022/07/13 06:45:58;;;;;;;15.73;3.53;;;;;;;30.86;47.03;100694.19;5051020;28;20041;-65
2022/07/13 06:48:24;;;;;;;17.15;3.30;;;;;;;30.76;48.39;100686.59;5045552;28;20037;-64
2022/07/13 06:50:51;;;;;;;13.63;3.95;;;;;;;30.90;48.81;100686.56;5047172;28;20029;-64
2022/07/13 06:53:18;;;;;;;15.48;3.45;;;;;;;30.77;48.25;100682.59;5050751;28;20025;-62
2022/07/13 06:55:45;;;;;;;14.35;3.30;;;;;;;30.69;48.97;100687.38;5051222;28;20033;-62
2022/07/13 06:58:11;;;;;;;17.08;3.85;;;;;;;30.65;48.59;100681.78;5050562;28;20106;-64
2022/07/13 07:00:38;;;;;;;21.83;3.97;;;;;;;30.63;48.89;100686.22;5052716;28;20586;-64
2022/07/13 07:03:05;;;;;;;19.95;3.95;;;;;;;30.57;49.97;100690.59;5051153;28;20108;-64
2022/07/13 07:05:31;;;;;;;13.43;3.65;;;;;;;30.79;49.90;100700.63;5052730;28;20033;-61
2022/07/13 07:08:00;;;;;;;15.88;3.42;;;;;;;30.63;50.18;100692.63;5049892;28;20529;-64
2022/07/13 07:10:26;;;;;;;13.60;3.63;;;;;;;30.76;49.18;100690.19;5052099;28;20033;-63
2022/07/13 07:12:53;;;;;;;12.73;3.67;;;;;;;30.63;49.87;100680.59;5050157;28;20504;-63
2022/07/13 07:15:20;;;;;;;14.30;3.65;;;;;;;30.59;49.89;100693.81;5051897;28;20025;-63
2022/07/13 07:17:47;;;;;;;17.33;3.85;;;;;;;30.46;50.73;100684.19;5051842;28;20480;-62
2022/07/13 07:20:15;;;;;;;16.83;4.07;;;;;;;30.35;50.84;100701.03;5050276;28;20532;-63
2022/07/13 07:22:42;;;;;;;18.48;4.03;;;;;;;30.23;51.03;100705.03;5050047;28;20075;-64
2022/07/13 07:25:09;;;;;;;14.25;4.15;;;;;;;30.29;52.14;100714.63;5049638;28;20029;-64
2022/07/13 07:27:36;;;;;;;15.32;4.50;;;;;;;30.44;52.18;100706.22;5050512;28;20036;-64
2022/07/13 07:30:05;;;;;;;17.45;4.13;;;;;;;30.50;52.37;100705.41;5049522;28;20117;-64
2022/07/13 07:32:31;;;;;;;14.43;3.88;;;;;;;30.53;53.02;100713.06;5052486;28;20126;-63
2022/07/13 07:34:58;;;;;;;17.20;4.10;;;;;;;30.58;53.19;100706.22;5043406;28;20065;-63
2022/07/13 07:37:25;;;;;;;14.23;3.83;;;;;;;30.51;53.53;100714.63;5044504;28;20418;-64
2022/07/13 07:39:52;;;;;;;18.38;3.53;;;;;;;30.53;52.98;100701.03;5054373;28;20037;-63
2022/07/13 07:42:19;;;;;;;11.43;3.63;;;;;;;30.57;53.78;100701.81;5050238;28;20099;-63
2022/07/13 07:44:45;;;;;;;17.98;4.03;;;;;;;30.49;54.70;100712.22;5052398;28;20115;-63
2022/07/13 07:47:12;;;;;;;15.85;4.20;;;;;;;30.60;53.67;100718.66;5046508;28;20029;-63
2022/07/13 07:49:39;;;;;;;18.42;3.90;;;;;;;30.49;54.46;100711.44;5047979;28;20053;-63
2022/07/13 07:52:06;;;;;;;48.17;6.20;;;;;;;30.49;55.28;100714.22;5050158;28;20021;-64
2022/07/13 07:54:33;;;;;;;38.55;5.10;;;;;;;30.42;53.63;100717.03;5049601;28;20036;-64
2022/07/13 07:56:59;;;;;;;21.02;4.00;;;;;;;30.50;55.37;100713.81;5048092;28;20025;-64
2022/07/13 07:59:26;;;;;;;15.23;4.05;;;;;;;30.50;54.14;100713.03;5050982;28;20086;-65
2022/07/13 08:01:53;;;;;;;17.35;4.18;;;;;;;30.42;56.09;100715.03;5047280;28;20434;-65
2022/07/13 08:04:21;;;;;;;18.85;3.63;;;;;;;30.42;56.48;100711.44;5047361;28;20099;-64
2022/07/13 08:06:47;;;;;;;20.80;3.85;;;;;;;30.47;55.50;100713.84;5050153;28;20108;-65
2022/07/13 08:09:14;;;;;;;14.10;3.13;;;;;;;30.30;55.32;100718.22;5051883;28;20029;-65
2022/07/13 08:11:41;;;;;;;21.40;4.20;;;;;;;30.24;56.30;100701.00;5050444;28;20025;-65
2022/07/13 08:14:08;;;;;;;14.07;3.30;;;;;;;30.21;54.24;100713.03;5046389;28;20130;-65
2022/07/13 08:16:34;;;;;;;24.40;4.00;;;;;;;30.12;55.84;100703.38;5045668;28;20036;-65
2022/07/13 08:19:01;;;;;;;24.85;3.92;;;;;;;30.10;57.68;100717.81;5051941;28;20108;-64
2022/07/13 08:21:28;;;;;;;19.38;4.32;;;;;;;30.12;57.24;100709.81;5044074;28;20055;-65
2022/07/13 08:23:54;;;;;;;17.50;3.75;;;;;;;30.11;55.62;100713.00;5047068;28;20304;-66
2022/07/13 08:26:27;;;;;;;25.30;4.18;;;;;;;30.06;56.25;100711.41;5051644;28;20066;-65
2022/07/13 08:28:55;;;;;;;14.85;3.65;;;;;;;30.24;57.63;100712.22;5047094;28;20142;-64
2022/07/13 08:31:22;;;;;;;16.10;3.97;;;;;;;30.44;57.17;100706.22;5045231;28;20121;-66
2022/07/13 08:39:20;;;;;;;26.38;4.07;;;;;;;30.21;55.35;100685.00;5062259;28;20037;-64
2022/07/13 08:41:48;;;;;;;17.25;3.90;;;;;;;30.31;56.59;100700.19;5057662;28;20112;-63
2022/07/13 08:44:15;;;;;;;19.13;3.80;;;;;;;30.28;57.21;100701.81;5063260;28;20043;-63
2022/07/13 08:46:42;;;;;;;15.52;3.80;;;;;;;30.25;57.01;100693.41;5066209;28;20113;-64
2022/07/13 08:49:10;;;;;;;17.00;4.32;;;;;;;30.32;57.22;100702.59;5050921;28;20060;-64
2022/07/13 08:51:38;;;;;;;13.45;3.40;;;;;;;30.25;57.76;100696.22;5049931;28;20028;-64
2022/07/13 08:54:05;;;;;;;15.77;3.80;;;;;;;30.21;57.71;100698.22;5049241;28;20055;-64
2022/07/13 08:56:32;;;;;;;15.23;3.33;;;;;;;30.17;56.72;100701.00;5046797;28;20515;-64
2022/07/13 08:59:00;;;;;;;13.25;3.63;;;;;;;30.12;57.42;100698.59;5049358;28;20313;-64
2022/07/13 09:01:27;;;;;;;12.43;3.25;;;;;;;30.08;57.81;100714.59;5048445;28;20031;-64
2022/07/13 09:03:53;;;;;;;13.13;3.47;;;;;;;30.01;57.64;100708.97;5047039;28;20498;-64
2022/07/13 09:06:52;;;;;;;11.70;3.08;;;;;;;30.04;58.07;100713.81;5050736;28;20028;-64
2022/07/13 09:09:33;;;;;;;10.95;3.40;;;;;;;30.14;57.62;100712.19;5011607;28;20069;-65
2022/07/13 09:12:21;;;;;;;11.15;3.50;;;;;;;30.14;56.42;100712.19;5044749;28;20030;-63
2022/07/13 09:14:59;;;;;;;17.85;3.13;;;;;;;30.00;57.92;100718.56;5044194;28;20041;-65
2022/07/13 09:17:47;;;;;;;15.88;3.78;;;;;;;29.99;57.04;100725.38;5035349;28;20047;-65
2022/07/13 09:20:13;;;;;;;10.13;2.67;;;;;;;30.04;58.37;100725.00;5026955;28;20061;-65
2022/07/13 09:22:57;;;;;;;15.48;3.35;;;;;;;29.95;57.57;100719.75;5043451;28;20491;-63
2022/07/13 09:25:37;;;;;;;14.23;3.50;;;;;;;29.85;59.32;100725.34;5034438;28;20579;-63
2022/07/13 09:28:21;;;;;;;13.35;3.13;;;;;;;29.77;59.93;100732.91;5045350;28;20167;-63
2022/07/13 09:30:48;;;;;;;13.73;3.72;;;;;;;29.81;60.07;100727.34;5043485;28;20399;-63
2022/07/13 09:33:14;;;;;;;11.85;3.40;;;;;;;29.72;60.47;100714.50;5046661;28;20455;-63
2022/07/13 09:35:41;;;;;;;13.60;3.72;;;;;;;29.77;60.35;100722.50;5039564;28;20055;-65
2022/07/13 09:38:08;;;;;;;14.73;3.30;;;;;;;29.81;59.59;100721.72;5055442;28;20504;-64
2022/07/13 09:40:34;;;;;;;15.00;3.47;;;;;;;29.98;59.72;100723.75;5045104;28;20038;-63
2022/07/13 09:48:31;;;;;;;12.67;3.00;;;;;;;29.72;60.83;100714.50;5055504;28;19921;-63
2022/07/13 09:50:58;;;;;;;10.27;3.10;;;;;;;29.59;61.57;100720.84;5041532;28;20091;-63
2022/07/13 09:53:25;;;;;;;12.40;3.38;;;;;;;29.62;61.42;100720.84;5052147;28;20037;-64
2022/07/13 09:55:52;;;;;;;11.60;2.95;;;;;;;29.62;59.88;100723.66;5040655;28;20029;-64
2022/07/13 09:58:28;;;;;;;11.95;3.00;;;;;;;29.46;59.89;100714.81;5046580;28;20034;-64
2022/07/13 10:00:59;;;;;;;10.80;3.50;;;;;;;29.33;62.11;100724.72;5049143;28;20040;-63
2022/07/13 10:03:30;;;;;;;12.52;3.33;;;;;;;29.46;61.60;100723.22;5048797;28;20044;-63
2022/07/13 10:05:59;;;;;;;15.55;3.75;;;;;;;29.48;62.09;100724.41;5055411;28;20083;-63
2022/07/13 10:08:27;;;;;;;14.60;3.55;;;;;;;29.32;62.50;100717.50;5045540;28;20025;-64
2022/07/13 10:10:53;;;;;;;14.40;3.55;;;;;;;29.18;63.06;100718.22;5048956;28;20506;-64
2022/07/13 10:13:20;;;;;;;12.30;3.65;;;;;;;29.15;63.12;100708.63;5038674;28;20467;-63
2022/07/13 10:15:47;;;;;;;11.38;3.25;;;;;;;29.19;63.12;100703.03;5050799;28;20109;-63
2022/07/13 10:18:21;;;;;;;12.43;3.42;;;;;;;29.27;62.56;100712.28;5043204;28;20020;-63
2022/07/13 10:21:20;;;;;;;10.70;3.22;;;;;;;29.36;62.50;100716.31;5044192;28;20026;-63
2022/07/13 10:23:47;;;;;;;11.65;3.17;;;;;;;29.29;61.62;100723.88;5038236;28;20395;-63
2022/07/13 10:26:31;;;;;;;11.13;3.28;;;;;;;29.16;63.61;100715.03;5054847;28;20028;-63
2022/07/13 10:29:11;;;;;;;11.93;3.20;;;;;;;29.12;63.94;100729.00;5040779;28;20033;-63
2022/07/13 10:31:40;;;;;;;13.40;3.03;;;;;;;29.03;64.37;100722.94;5051484;28;20064;-64
2022/07/13 10:34:08;;;;;;;10.32;3.10;;;;;;;28.95;64.37;100720.50;5050549;28;20029;-64
2022/07/13 10:36:52;;;;;;;14.45;3.33;;;;;;;28.96;61.14;100728.50;5046075;28;20114;-64
2022/07/13 10:39:21;;;;;;;11.23;2.72;;;;;;;28.95;63.15;100726.88;5052793;28;20486;-62
2022/07/13 10:42:07;;;;;;;11.98;3.15;;;;;;;28.87;63.00;100728.81;5039396;28;20713;-63
2022/07/13 10:44:43;;;;;;;11.70;3.03;;;;;;;28.92;64.83;100733.28;5042740;28;20037;-63
2022/07/13 10:47:12;;;;;;;11.20;3.38;;;;;;;28.92;64.29;100747.25;5050423;28;20076;-63
2022/07/13 10:49:51;;;;;;;13.90;3.45;;;;;;;28.95;64.54;100754.88;5038045;28;20021;-63
2022/07/13 10:55:09;;;;;;;10.88;3.42;;;;;;;29.06;64.25;100761.31;5047119;28;20032;-63
2022/07/13 10:57:38;;;;;;;13.02;3.22;;;;;;;29.12;63.78;100762.59;5037898;28;20219;-63
2022/07/13 11:00:17;;;;;;;20.75;4.10;;;;;;;29.28;64.13;100767.88;5047111;28;20041;-63
2022/07/13 11:02:50;;;;;;;13.82;3.90;;;;;;;29.13;64.45;100753.00;5046417;28;20087;-63
2022/07/13 11:05:19;;;;;;;14.32;3.83;;;;;;;29.27;64.70;100757.06;5054196;28;20095;-63
2022/07/13 11:07:48;;;;;;;15.32;3.70;;;;;;;29.34;64.24;100757.91;5049941;28;20044;-63
2022/07/13 11:10:34;;;;;;;11.65;3.80;;;;;;;29.43;64.83;100765.94;5042379;28;20484;-64
2022/07/13 11:13:15;;;;;;;14.07;3.67;;;;;;;29.34;64.46;100765.50;5039653;28;20033;-63
2022/07/13 11:15:50;;;;;;;16.00;4.13;;;;;;;29.29;64.41;100760.28;5037871;28;20033;-63
2022/07/13 11:18:23;;;;;;;17.45;4.10;;;;;;;29.28;65.01;100762.28;5053856;28;20055;-63
2022/07/13 11:21:23;;;;;;;18.05;4.55;;;;;;;29.32;64.51;100765.09;5041108;28;20496;-63
2022/07/13 11:27:11;;;;;;;16.08;5.07;;;;;;;29.31;64.87;100764.28;5045161;28;20052;-64
2022/07/13 11:29:49;;;;;;;23.02;6.50;;;;;;;29.42;65.39;100767.13;5035924;28;20111;-63
2022/07/13 11:32:22;;;;;;;15.23;4.95;;;;;;;29.36;65.38;100763.91;5053325;28;20037;-63
2022/07/13 11:34:49;;;;;;;15.32;5.00;;;;;;;29.18;66.09;100769.41;5053708;28;20123;-64
2022/07/13 11:37:23;;;;;;;15.30;5.15;;;;;;;29.09;66.74;100765.38;5053388;28;20111;-63
2022/07/13 11:39:50;;;;;;;18.02;6.30;;;;;;;29.06;66.01;100761.31;5038514;28;20360;-64